createdAt,value
2023-01-09T00:04:00.776Z,3.68
2023-01-09T00:08:52.434Z,3.68
2023-01-09T00:13:44.380Z,3.66
2023-01-09T00:18:37.461Z,3.61
2023-01-09T00:23:29.190Z,3.58
2023-01-09T00:28:20.889Z,3.55
2023-01-09T00:33:13.175Z,3.53
2023-01-09T00:38:04.960Z,3.47
2023-01-09T00:42:57.908Z,3.43
2023-01-09T00:47:52.892Z,3.39
2023-01-09T00:52:47.103Z,3.36
2023-01-09T00:57:39.127Z,3.31
2023-01-09T01:02:31.029Z,3.29
2023-01-09T01:07:43.341Z,3.24
2023-01-09T01:12:35.053Z,3.22
2023-01-09T01:17:26.697Z,3.16
2023-01-09T01:22:18.506Z,3.19
2023-01-09T01:27:10.455Z,3.19
2023-01-09T01:32:02.116Z,3.22
2023-01-09T01:36:54.046Z,3.26
2023-01-09T01:41:45.677Z,3.28
2023-01-09T01:46:37.361Z,3.27
2023-01-09T01:51:32.012Z,3.30
2023-01-09T01:56:30.560Z,3.33
2023-01-09T02:01:24.770Z,3.37
2023-01-09T02:06:16.641Z,3.45
2023-01-09T02:11:09.007Z,3.52
2023-01-09T02:16:03.604Z,3.57
2023-01-09T02:21:00.720Z,3.63
2023-01-09T02:26:13.476Z,3.67
2023-01-09T02:31:15.502Z,3.68
2023-01-09T02:36:29.145Z,3.66
2023-01-09T02:41:53.075Z,3.66
2023-01-09T02:46:44.870Z,3.63
2023-01-09T02:51:36.642Z,3.69
2023-01-09T02:56:37.350Z,3.76
2023-01-09T03:01:52.416Z,3.81
2023-01-09T03:06:54.976Z,3.86
2023-01-09T03:12:01.126Z,3.91
2023-01-09T03:17:02.637Z,3.96
2023-01-09T03:21:56.395Z,4.00
2023-01-09T03:26:48.214Z,3.99
2023-01-09T03:31:39.970Z,3.98
2023-01-09T03:36:31.716Z,3.99
2023-01-09T03:41:23.478Z,3.93
2023-01-09T03:46:18.075Z,3.87
2023-01-09T03:51:10.320Z,3.81
2023-01-09T03:56:01.976Z,3.77
2023-01-09T04:00:59.835Z,3.74
2023-01-09T04:05:51.698Z,3.69
2023-01-09T04:10:47.672Z,3.66
2023-01-09T04:15:39.468Z,3.64
2023-01-09T04:20:32.052Z,3.66
2023-01-09T04:25:23.755Z,3.67
2023-01-09T04:30:15.462Z,3.70
2023-01-09T04:35:07.917Z,3.68
2023-01-09T04:39:59.707Z,3.72
2023-01-09T04:44:54.228Z,3.70
2023-01-09T04:49:45.898Z,3.69
2023-01-09T04:54:39.547Z,3.68
2023-01-09T04:59:31.323Z,3.66
2023-01-09T05:04:23.103Z,3.65
2023-01-09T05:09:14.756Z,3.64
2023-01-09T05:14:06.438Z,3.68
2023-01-09T05:18:58.387Z,3.70
2023-01-09T05:23:50.352Z,3.75
2023-01-09T05:28:42.097Z,3.78
2023-01-09T05:33:33.814Z,3.78
2023-01-09T05:38:25.618Z,3.75
2023-01-09T05:43:17.411Z,3.71
2023-01-09T05:48:09.086Z,3.70
2023-01-09T05:53:00.783Z,3.68
2023-01-09T05:57:52.437Z,3.68
2023-01-09T06:02:44.169Z,3.66
2023-01-09T06:07:39.361Z,3.67
2023-01-09T06:12:31.147Z,3.69
2023-01-09T06:17:22.883Z,3.73
2023-01-09T06:22:14.529Z,3.78
2023-01-09T06:27:06.813Z,3.83
2023-01-09T06:31:58.623Z,3.84
2023-01-09T06:36:50.234Z,3.87
2023-01-09T06:41:41.983Z,3.93
2023-01-09T06:46:33.662Z,3.99
2023-01-09T06:51:25.446Z,4.03
2023-01-09T06:56:17.153Z,4.10
2023-01-09T07:01:09.410Z,4.14
2023-01-09T07:06:01.139Z,4.19
2023-01-09T07:10:52.852Z,4.21
2023-01-09T07:15:44.895Z,4.28
2023-01-09T07:20:39.816Z,4.30
2023-01-09T07:25:31.503Z,4.33
2023-01-09T07:30:23.385Z,4.36
2023-01-09T07:35:15.199Z,4.38
2023-01-09T07:40:07.687Z,4.40
2023-01-09T07:44:59.379Z,4.42
2023-01-09T07:49:51.103Z,4.44
2023-01-09T07:54:43.000Z,4.47
2023-01-09T07:59:34.733Z,4.45
2023-01-09T08:04:26.431Z,4.47
2023-01-09T08:09:18.827Z,4.43
2023-01-09T08:14:10.431Z,4.44
2023-01-09T08:19:02.077Z,4.44
2023-01-09T08:23:53.808Z,4.39
2023-01-09T08:28:46.264Z,4.42
2023-01-09T08:33:40.408Z,4.44
2023-01-09T08:38:32.274Z,4.50
2023-01-09T08:43:42.577Z,4.55
2023-01-09T08:48:34.289Z,4.62
2023-01-09T08:53:26.025Z,4.65
2023-01-09T08:58:17.791Z,4.70
2023-01-09T09:03:11.829Z,4.77
2023-01-09T09:08:04.329Z,4.86
2023-01-09T09:12:58.350Z,4.91
2023-01-09T09:18:04.358Z,4.97
2023-01-09T09:22:56.217Z,5.07
2023-01-09T09:27:48.070Z,5.14
2023-01-09T09:32:40.552Z,5.29
2023-01-09T09:37:32.564Z,5.47
2023-01-09T09:42:48.411Z,5.64
2023-01-09T09:47:45.883Z,5.89
2023-01-09T09:52:59.910Z,6.23
2023-01-09T09:57:52.337Z,6.55
2023-01-09T10:03:06.717Z,6.75
2023-01-09T10:08:15.781Z,6.98
2023-01-09T10:13:27.770Z,7.31
2023-01-09T10:18:42.823Z,7.60
2023-01-09T10:23:54.620Z,7.99
2023-01-09T10:29:38.724Z,8.28
2023-01-09T10:34:46.972Z,8.41
2023-01-09T10:39:44.137Z,8.49
2023-01-09T10:45:03.449Z,8.42
2023-01-09T10:49:56.921Z,8.35
2023-01-09T10:54:55.528Z,8.10
2023-01-09T10:59:47.212Z,7.96
2023-01-09T11:04:40.314Z,8.21
2023-01-09T11:09:55.296Z,8.58
2023-01-09T11:14:47.007Z,8.79
2023-01-09T11:19:38.893Z,8.85
2023-01-09T11:24:31.817Z,8.95
2023-01-09T11:29:26.638Z,8.76
2023-01-09T11:34:21.098Z,8.56
2023-01-09T11:39:25.495Z,8.48
2023-01-09T11:44:17.336Z,8.49
2023-01-09T11:49:15.329Z,8.45
2023-01-09T11:54:16.368Z,8.57
2023-01-09T11:59:21.334Z,8.65
2023-01-09T12:04:25.397Z,8.65
2023-01-09T12:09:28.296Z,8.53
2023-01-09T12:14:19.875Z,8.56
2023-01-09T12:19:23.703Z,8.65
2023-01-09T12:24:24.352Z,8.51
2023-01-09T12:29:19.038Z,8.40
2023-01-09T12:34:28.887Z,8.38
2023-01-09T12:39:54.478Z,8.29
2023-01-09T12:45:07.341Z,8.15
2023-01-09T12:50:07.767Z,8.01
2023-01-09T12:55:30.349Z,7.85
2023-01-09T13:00:22.048Z,7.72
2023-01-09T13:05:24.505Z,7.60
2023-01-09T13:10:40.945Z,7.55
2023-01-09T13:15:40.116Z,7.56
2023-01-09T13:21:07.265Z,7.61
2023-01-09T13:26:04.411Z,7.60
2023-01-09T13:31:08.830Z,7.59
2023-01-09T13:36:03.483Z,7.57
2023-01-09T13:41:35.662Z,7.51
2023-01-09T13:46:45.578Z,7.46
2023-01-09T13:51:58.345Z,7.42
2023-01-09T13:57:17.880Z,7.43
2023-01-09T14:02:35.368Z,7.46
2023-01-09T14:07:33.050Z,7.39
2023-01-09T14:12:26.547Z,7.34
2023-01-09T14:17:34.706Z,7.30
2023-01-09T14:22:42.344Z,7.27
2023-01-09T14:27:54.885Z,7.22
2023-01-09T14:32:57.866Z,7.19
2023-01-09T14:38:06.510Z,7.11
2023-01-09T14:43:05.109Z,7.04
2023-01-09T14:48:01.768Z,6.97
2023-01-09T14:52:57.896Z,6.96
2023-01-09T14:57:54.693Z,6.94
2023-01-09T15:02:47.455Z,6.95
2023-01-09T15:08:05.482Z,6.92
2023-01-09T15:13:00.751Z,6.83
2023-01-09T15:18:01.749Z,6.74
2023-01-09T15:22:54.918Z,6.63
2023-01-09T15:28:00.491Z,6.51
2023-01-09T15:32:52.807Z,6.44
2023-01-09T15:37:45.051Z,6.42
2023-01-09T15:42:58.201Z,6.40
2023-01-09T15:47:50.244Z,6.40
2023-01-09T15:52:42.507Z,6.40
2023-01-09T15:57:35.601Z,6.41
2023-01-09T16:02:45.934Z,6.40
2023-01-09T16:07:53.054Z,6.37
2023-01-09T16:12:44.707Z,6.35
2023-01-09T16:17:36.579Z,6.30
2023-01-09T16:22:33.304Z,6.24
2023-01-09T16:27:28.819Z,6.21
2023-01-09T16:32:32.939Z,6.17
2023-01-09T16:37:25.721Z,6.14
2023-01-09T16:42:35.931Z,6.17
2023-01-09T16:47:27.610Z,6.18
2023-01-09T16:52:19.331Z,6.15
2023-01-09T16:57:17.991Z,6.20
2023-01-09T17:02:18.096Z,6.20
2023-01-09T17:07:14.442Z,6.20
2023-01-09T17:12:06.484Z,6.17
2023-01-09T17:16:58.585Z,6.19
2023-01-09T17:21:50.419Z,6.19
2023-01-09T17:27:09.592Z,6.18
2023-01-09T17:32:01.404Z,6.14
2023-01-09T17:36:55.649Z,6.09
2023-01-09T17:41:47.399Z,6.03
2023-01-09T17:46:42.025Z,5.99
2023-01-09T17:51:33.790Z,5.95
2023-01-09T17:56:30.664Z,5.94
2023-01-09T18:01:22.533Z,5.92
2023-01-09T18:06:15.898Z,5.88
2023-01-09T18:11:10.925Z,5.84
2023-01-09T18:16:02.639Z,5.79
2023-01-09T18:20:54.449Z,5.76
2023-01-09T18:25:46.470Z,5.79
2023-01-09T18:30:38.331Z,5.80
2023-01-09T18:35:30.922Z,5.84
2023-01-09T18:40:22.756Z,5.88
2023-01-09T18:45:14.509Z,5.89
2023-01-09T18:50:06.639Z,5.91
2023-01-09T18:54:58.245Z,5.91
2023-01-09T18:59:49.996Z,5.92
2023-01-09T19:04:41.743Z,5.96
2023-01-09T19:09:33.607Z,5.96
2023-01-09T19:14:25.222Z,5.90
2023-01-09T19:19:17.327Z,5.87
2023-01-09T19:24:09.073Z,5.77
2023-01-09T19:29:01.071Z,5.67
2023-01-09T19:33:53.246Z,5.60
2023-01-09T19:38:45.108Z,5.59
2023-01-09T19:43:37.453Z,5.60
2023-01-09T19:48:30.647Z,5.59
2023-01-09T19:53:22.296Z,5.60
2023-01-09T19:58:13.988Z,5.58
2023-01-09T20:03:05.690Z,5.52
2023-01-09T20:07:57.655Z,5.48
2023-01-09T20:12:49.608Z,5.43
2023-01-09T20:17:42.260Z,5.42
2023-01-09T20:22:34.381Z,5.44
2023-01-09T20:27:26.107Z,5.44
2023-01-09T20:32:18.803Z,5.41
2023-01-09T20:37:11.134Z,5.35
2023-01-09T20:42:03.036Z,5.32
2023-01-09T20:46:54.779Z,5.29
2023-01-09T20:51:52.047Z,5.27
2023-01-09T20:56:44.060Z,5.28
2023-01-09T21:01:35.850Z,5.22
2023-01-09T21:06:28.721Z,5.19
2023-01-09T21:11:21.933Z,5.16
2023-01-09T21:16:15.999Z,5.12
2023-01-09T21:21:10.827Z,5.08
2023-01-09T21:26:08.991Z,5.06
2023-01-09T21:31:00.719Z,5.03
2023-01-09T21:35:57.071Z,4.98
2023-01-09T21:40:50.876Z,5.00
2023-01-09T21:46:01.271Z,4.97
2023-01-09T21:50:52.971Z,4.95
2023-01-09T21:55:44.828Z,4.96
2023-01-09T22:00:36.478Z,4.96
2023-01-09T22:05:28.185Z,4.98
2023-01-09T22:10:19.865Z,5.00
2023-01-09T22:15:11.605Z,4.95
2023-01-09T22:20:03.460Z,4.97
2023-01-09T22:24:55.234Z,4.93
2023-01-09T22:29:46.943Z,4.93
2023-01-09T22:34:38.822Z,4.97
2023-01-09T22:39:30.565Z,4.96
2023-01-09T22:44:22.377Z,4.92
2023-01-09T22:49:14.272Z,4.92
2023-01-09T22:54:06.387Z,4.89
2023-01-09T22:58:59.651Z,4.83
2023-01-09T23:03:51.432Z,4.77
2023-01-09T23:08:43.449Z,4.68
2023-01-09T23:13:35.746Z,4.68
2023-01-09T23:18:27.847Z,4.66
2023-01-09T23:23:21.115Z,4.66
2023-01-09T23:28:12.782Z,4.60
2023-01-09T23:33:04.427Z,4.63
2023-01-09T23:37:55.999Z,4.60
2023-01-09T23:43:06.230Z,4.59
2023-01-09T23:47:57.884Z,4.59
2023-01-09T23:52:49.673Z,4.57
2023-01-09T23:57:41.301Z,4.56
